Terminal Aerodrome Forecast
Issued by NWS Melbourne, FL

Home | Current Version | Previous Version | Text Only | Print | Product List | Glossary On
Versions: 1 2 3 4 5 6 7 8 9 10 11 12 13 14
000
FTUS42 KMLB 211736
TAFDAB
TAF
KDAB 211736Z 2118/2218 10010KT 6SM SHRA SCT025 BKN040 OVC080
      TEMPO 2118/2122 3SM SHRA BKN020
     FM220100 08005KT P6SM SCT040 BKN070
     FM220800 00000KT 5SM BR FEW003 SCT250
     FM221400 04006KT P6SM SCT030 BKN250=

USA.gov is the U.S. government's official web portal to all federal, state and local government web resources and services.